Time;durP1;ratioP1;P1;durP2;ratioP2;P2;SDS_P1;SDS_P2;PMS_P1;PMS_P2;Temp;Humidity;BMP_temperature;BMP_pressure;BME280_temperature;BME280_humidity;BME280_pressure;Samples;Min_cycle;Max_cycle;Signal;HPM_P1;HPM_P2
2022/01/06 00:01:18;;;;;;;4.90;2.90;;;3.00;99.90;;;;;;5040922;28;20204;-92
2022/01/06 00:03:52;;;;;;;3.77;3.40;;;3.00;99.90;;;;;;5040816;28;20213;-93
2022/01/06 00:06:24;;;;;;;3.60;3.00;;;2.90;99.90;;;;;;5042188;28;20235;-94
2022/01/06 00:08:59;;;;;;;5.10;3.90;;;2.90;99.90;;;;;;5044853;28;20205;-94
2022/01/06 00:11:30;;;;;;;3.97;3.57;;;2.90;99.90;;;;;;5038921;28;20254;-94
2022/01/06 00:14:06;;;;;;;5.70;3.13;;;2.80;99.90;;;;;;5039150;28;20232;-95
2022/01/06 00:16:43;;;;;;;4.17;3.20;;;2.80;99.90;;;;;;5040786;28;20204;-94
2022/01/06 00:24:58;;;;;;;4.83;4.10;;;2.80;99.90;;;;;;5044711;28;20213;-94
2022/01/06 00:27:29;;;;;;;4.70;4.20;;;2.90;99.90;;;;;;5038922;28;20274;-94
2022/01/06 00:30:00;;;;;;;5.60;3.70;;;2.90;99.90;;;;;;5023459;28;20205;-94
2022/01/06 00:32:31;;;;;;;5.17;4.40;;;2.90;99.90;;;;;;5039664;28;20200;-94
2022/01/06 00:35:03;;;;;;;5.80;4.23;;;2.90;99.90;;;;;;5040482;28;20236;-94
2022/01/06 00:37:33;;;;;;;7.90;5.50;;;2.80;99.90;;;;;;5040216;28;20208;-93
2022/01/06 00:40:08;;;;;;;7.53;5.40;;;2.80;99.90;;;;;;5037384;28;20252;-94
2022/01/06 00:42:41;;;;;;;6.43;4.50;;;2.90;99.90;;;;;;5026827;28;20204;-94
2022/01/06 00:45:12;;;;;;;5.83;4.77;;;2.80;99.90;;;;;;5053500;28;20198;-93
2022/01/06 00:47:45;;;;;;;7.03;4.80;;;2.80;99.90;;;;;;5421002;23;20231;-93
2022/01/06 00:50:17;;;;;;;5.07;4.27;;;2.80;99.90;;;;;;5163017;23;20243;-94
2022/01/06 00:52:48;;;;;;;5.90;4.13;;;2.80;99.90;;;;;;5035137;28;20209;-94
2022/01/06 00:55:22;;;;;;;6.37;4.23;;;2.80;99.90;;;;;;5052478;28;20216;-92
2022/01/06 00:57:55;;;;;;;5.53;4.57;;;2.70;99.90;;;;;;5053388;28;20274;-93
2022/01/06 01:00:31;;;;;;;5.90;4.03;;;2.70;99.90;;;;;;5051924;28;20259;-94
2022/01/06 01:03:02;;;;;;;5.97;3.57;;;2.70;99.90;;;;;;5052152;28;20204;-94
2022/01/06 01:05:34;;;;;;;6.00;4.03;;;2.60;99.90;;;;;;5055061;28;20201;-94
2022/01/06 01:08:08;;;;;;;5.00;3.70;;;2.70;99.90;;;;;;5056193;28;20193;-93
2022/01/06 01:10:41;;;;;;;4.47;3.37;;;2.70;99.90;;;;;;5057069;28;20184;-95
2022/01/06 01:13:13;;;;;;;4.70;3.90;;;2.70;99.90;;;;;;5109354;23;20208;-90
2022/01/06 01:15:47;;;;;;;6.50;3.83;;;2.60;99.90;;;;;;5017070;28;20217;-95
2022/01/06 01:18:19;;;;;;;4.97;3.67;;;2.70;99.90;;;;;;5016449;28;20194;-93
2022/01/06 01:20:53;;;;;;;4.80;3.33;;;2.60;99.90;;;;;;5016506;28;20248;-96
2022/01/06 01:23:24;;;;;;;4.07;3.43;;;2.60;99.90;;;;;;5016203;28;20206;-95
2022/01/06 01:25:57;;;;;;;4.83;3.60;;;2.60;99.90;;;;;;5013823;28;20253;-95
2022/01/06 01:28:33;;;;;;;4.70;4.20;;;2.60;99.90;;;;;;5013844;28;20214;-95
2022/01/06 01:31:11;;;;;;;5.83;4.73;;;2.60;99.90;;;;;;5014924;28;20210;-96
2022/01/06 01:33:43;;;;;;;4.53;3.80;;;2.60;99.90;;;;;;5007837;28;20210;-95
2022/01/06 01:36:14;;;;;;;5.73;3.90;;;2.60;99.90;;;;;;5011708;28;20210;-97
2022/01/06 01:38:45;;;;;;;5.87;4.10;;;2.50;99.90;;;;;;5006761;28;20261;-96
2022/01/06 01:41:20;;;;;;;4.97;4.20;;;2.50;99.90;;;;;;5013019;28;20260;-94
2022/01/06 01:43:53;;;;;;;5.47;3.63;;;2.40;99.90;;;;;;5014708;28;20205;-94
2022/01/06 01:46:30;;;;;;;5.43;3.73;;;2.40;99.90;;;;;;5184541;23;20229;-95
2022/01/06 01:49:27;;;;;;;7.40;4.30;;;2.30;99.90;;;;;;5037804;28;20189;-95
2022/01/06 01:52:01;;;;;;;5.23;3.87;;;2.30;99.90;;;;;;5037656;28;20257;-93
2022/01/06 01:54:34;;;;;;;8.00;4.97;;;2.20;99.90;;;;;;5033391;28;20192;-94
2022/01/06 01:57:12;;;;;;;5.50;4.07;;;2.20;99.90;;;;;;5034236;28;20202;-94
2022/01/06 01:59:45;;;;;;;5.43;3.63;;;2.10;99.90;;;;;;5034418;28;20305;-94
2022/01/06 02:02:16;;;;;;;6.40;3.80;;;2.00;99.90;;;;;;5033163;28;20202;-95
2022/01/06 02:04:52;;;;;;;7.23;4.23;;;2.10;99.90;;;;;;5017016;28;20209;-94
2022/01/06 02:07:23;;;;;;;7.27;4.23;;;2.00;99.90;;;;;;5034287;28;20216;-95
2022/01/06 02:09:56;;;;;;;7.13;4.40;;;2.00;99.90;;;;;;5015128;28;20213;-94
2022/01/06 02:12:37;;;;;;;5.30;4.03;;;1.90;99.90;;;;;;5034822;28;20197;-93
2022/01/06 02:15:10;;;;;;;5.90;3.77;;;1.90;99.90;;;;;;5034604;28;20264;-95
2022/01/06 02:17:44;;;;;;;4.97;4.23;;;1.90;99.90;;;;;;5032306;28;20296;-95
2022/01/06 02:20:20;;;;;;;5.00;3.77;;;1.80;99.90;;;;;;5032968;28;20274;-94
2022/01/06 02:22:54;;;;;;;4.17;3.10;;;1.80;99.90;;;;;;5016149;28;20249;-94
2022/01/06 02:25:32;;;;;;;3.90;3.03;;;1.70;99.90;;;;;;5034011;28;20214;-96
2022/01/06 02:28:04;;;;;;;4.37;3.07;;;1.70;99.90;;;;;;5029327;28;20209;-96
2022/01/06 02:30:37;;;;;;;3.50;3.00;;;1.60;99.90;;;;;;5026665;28;20205;-96
2022/01/06 02:33:08;;;;;;;3.70;2.87;;;1.50;99.90;;;;;;5027190;28;20247;-95
2022/01/06 02:35:41;;;;;;;4.33;3.07;;;1.50;99.90;;;;;;5028824;28;20213;-96
2022/01/06 02:38:16;;;;;;;5.27;3.23;;;1.50;99.90;;;;;;5028158;28;20253;-95
2022/01/06 02:40:48;;;;;;;4.57;3.70;;;1.50;99.90;;;;;;5031608;28;20281;-95
2022/01/06 02:43:24;;;;;;;4.97;3.53;;;1.50;99.90;;;;;;5028999;28;20209;-94
2022/01/06 02:45:57;;;;;;;4.43;3.50;;;1.40;99.90;;;;;;5027693;28;20205;-94
2022/01/06 02:48:28;;;;;;;4.10;2.83;;;1.40;99.90;;;;;;5016426;28;20217;-94
2022/01/06 02:51:02;;;;;;;7.80;3.57;;;1.50;99.90;;;;;;5033681;28;20193;-95
2022/01/06 02:53:34;;;;;;;5.43;3.53;;;1.40;99.90;;;;;;5016318;28;20208;-96
2022/01/06 02:56:06;;;;;;;4.90;3.47;;;1.40;99.90;;;;;;5032572;28;20271;-95
2022/01/06 02:58:44;;;;;;;5.43;3.80;;;1.40;99.90;;;;;;5033652;28;20205;-95
2022/01/06 03:01:16;;;;;;;5.90;4.53;;;1.40;99.90;;;;;;5033023;28;20237;-95
2022/01/06 03:03:47;;;;;;;4.67;3.97;;;1.40;99.90;;;;;;5016350;28;20216;-95
2022/01/06 03:06:20;;;;;;;7.43;4.70;;;1.40;99.90;;;;;;5032623;28;20206;-94
2022/01/06 03:08:51;;;;;;;6.87;5.33;;;1.40;99.90;;;;;;5027236;28;20217;-94
2022/01/06 03:11:26;;;;;;;7.70;5.50;;;1.40;99.90;;;;;;5021850;28;20297;-95
2022/01/06 03:13:57;;;;;;;10.70;7.90;;;1.40;99.90;;;;;;5025754;28;20227;-94
2022/01/06 03:16:30;;;;;;;12.50;8.43;;;1.30;99.90;;;;;;5011338;28;20288;-95
2022/01/06 03:19:02;;;;;;;10.47;7.70;;;1.30;99.90;;;;;;5026057;28;20345;-94
2022/01/06 03:21:36;;;;;;;12.00;8.87;;;1.30;99.90;;;;;;5029152;28;20249;-93
2022/01/06 03:24:07;;;;;;;9.27;7.33;;;1.30;99.90;;;;;;5034064;28;20225;-95
2022/01/06 03:26:38;;;;;;;8.17;6.37;;;1.40;99.90;;;;;;5014379;28;20201;-95
2022/01/06 03:29:10;;;;;;;10.17;6.70;;;1.40;99.90;;;;;;5031971;28;20212;-96
2022/01/06 03:31:41;;;;;;;7.00;5.47;;;1.40;99.90;;;;;;5035094;28;20213;-95
2022/01/06 03:34:14;;;;;;;6.70;4.93;;;1.40;99.90;;;;;;5021633;28;20545;-95
2022/01/06 03:36:48;;;;;;;6.07;4.70;;;1.30;99.90;;;;;;5037548;28;20205;-96
2022/01/06 03:39:19;;;;;;;10.33;5.17;;;1.40;99.90;;;;;;5038678;28;20197;-95
2022/01/06 03:41:50;;;;;;;6.73;4.83;;;1.40;99.90;;;;;;5037738;28;20233;-95
2022/01/06 03:44:21;;;;;;;6.23;4.60;;;1.40;99.90;;;;;;5035677;28;20210;-95
2022/01/06 03:46:54;;;;;;;5.93;4.33;;;1.40;99.90;;;;;;5031369;28;20289;-96
2022/01/06 03:49:26;;;;;;;5.60;4.63;;;1.40;99.90;;;;;;5015367;28;20206;-95
2022/01/06 03:52:01;;;;;;;6.40;4.83;;;1.50;99.90;;;;;;5030000;28;20210;-93
2022/01/06 03:54:33;;;;;;;6.10;4.87;;;1.40;99.90;;;;;;5015881;28;20241;-94
2022/01/06 03:57:06;;;;;;;5.20;4.47;;;1.40;99.90;;;;;;5012408;28;20281;-95
2022/01/06 03:59:38;;;;;;;7.20;4.50;;;1.40;99.90;;;;;;4995316;28;20206;-93
2022/01/06 04:02:09;;;;;;;6.20;4.57;;;1.40;99.90;;;;;;5011381;28;20242;-95
2022/01/06 04:04:41;;;;;;;4.77;4.13;;;1.40;99.90;;;;;;5005714;28;20217;-94
2022/01/06 04:07:14;;;;;;;4.63;3.77;;;1.40;99.90;;;;;;5010249;28;20694;-95
2022/01/06 04:09:46;;;;;;;4.60;3.83;;;1.50;99.90;;;;;;5012130;28;20218;-96
2022/01/06 04:12:17;;;;;;;4.77;3.90;;;1.50;99.90;;;;;;5016996;28;20226;-95
2022/01/06 04:14:48;;;;;;;5.57;4.03;;;1.50;99.90;;;;;;5012448;28;20194;-96
2022/01/06 04:17:20;;;;;;;6.37;4.60;;;1.50;99.90;;;;;;5013348;28;20206;-94
2022/01/06 04:19:52;;;;;;;6.03;4.40;;;1.50;99.90;;;;;;5013212;28;20306;-95
2022/01/06 04:22:26;;;;;;;4.97;4.40;;;1.50;99.90;;;;;;5013285;28;20317;-95
2022/01/06 04:24:57;;;;;;;5.57;4.50;;;1.50;99.90;;;;;;5012222;28;20221;-95
2022/01/06 04:27:30;;;;;;;6.63;5.00;;;1.50;99.90;;;;;;5011916;28;20268;-96
2022/01/06 04:30:01;;;;;;;6.63;5.67;;;1.50;99.90;;;;;;5011928;28;20202;-95
2022/01/06 04:32:32;;;;;;;6.60;4.90;;;1.40;99.90;;;;;;5012526;28;20214;-95
2022/01/06 04:35:03;;;;;;;7.20;5.33;;;1.40;99.90;;;;;;5011810;28;20217;-93
2022/01/06 04:37:38;;;;;;;8.30;5.70;;;1.40;99.90;;;;;;5010848;28;20206;-94
2022/01/06 04:40:12;;;;;;;6.63;5.17;;;1.40;99.90;;;;;;5010144;28;20205;-93
2022/01/06 04:42:43;;;;;;;6.30;5.30;;;1.40;99.90;;;;;;5011768;28;20249;-94
2022/01/06 04:45:16;;;;;;;6.67;5.33;;;1.40;99.90;;;;;;5014020;28;20243;-96
2022/01/06 04:47:47;;;;;;;7.17;5.30;;;1.40;99.90;;;;;;5032152;28;20216;-94
2022/01/06 04:50:19;;;;;;;5.57;4.53;;;1.50;99.90;;;;;;5031357;28;20237;-95
2022/01/06 04:52:53;;;;;;;6.07;5.03;;;1.50;99.90;;;;;;5031013;28;20236;-94
2022/01/06 04:55:25;;;;;;;7.73;4.57;;;1.50;99.90;;;;;;5026258;28;20209;-95
2022/01/06 04:57:57;;;;;;;5.87;5.10;;;1.50;99.90;;;;;;5012511;28;20201;-95
2022/01/06 05:00:28;;;;;;;5.77;4.67;;;1.40;99.90;;;;;;5030555;28;20224;-94
2022/01/06 05:02:59;;;;;;;6.80;4.83;;;1.40;99.90;;;;;;5029418;28;20253;-96
2022/01/06 05:05:31;;;;;;;6.77;4.57;;;1.50;99.90;;;;;;5031546;28;20212;-93
2022/01/06 05:08:08;;;;;;;8.23;5.50;;;1.50;99.90;;;;;;5040859;28;20220;-94
2022/01/06 05:10:39;;;;;;;6.00;4.40;;;1.40;99.90;;;;;;5332284;23;20260;-96
2022/01/06 05:13:11;;;;;;;7.67;4.50;;;1.40;99.90;;;;;;5030262;28;20209;-96
2022/01/06 05:15:42;;;;;;;5.60;4.97;;;1.40;99.90;;;;;;5012730;28;20233;-95
2022/01/06 05:18:14;;;;;;;7.20;4.97;;;1.40;99.90;;;;;;5030615;28;20201;-95
2022/01/06 05:20:46;;;;;;;5.87;4.17;;;1.40;99.90;;;;;;5033040;28;20624;-94
2022/01/06 05:23:20;;;;;;;5.63;4.10;;;1.40;99.90;;;;;;5030698;28;20233;-94
2022/01/06 05:25:51;;;;;;;6.03;4.50;;;1.40;99.90;;;;;;5034159;28;20225;-95
2022/01/06 05:28:23;;;;;;;6.37;4.67;;;1.40;99.90;;;;;;5027834;28;20573;-96
2022/01/06 05:30:54;;;;;;;5.10;4.10;;;1.40;99.90;;;;;;5003262;28;20271;-95
2022/01/06 05:33:26;;;;;;;5.63;4.40;;;1.50;99.90;;;;;;5026799;28;20213;-95
2022/01/06 05:35:57;;;;;;;6.43;4.20;;;1.50;99.90;;;;;;5036126;28;20270;-95
2022/01/06 05:38:30;;;;;;;5.27;4.00;;;1.40;99.90;;;;;;5033355;28;20206;-94
2022/01/06 05:41:01;;;;;;;6.63;4.43;;;1.40;99.90;;;;;;5026970;28;20245;-94
2022/01/06 05:43:32;;;;;;;8.37;5.33;;;1.40;99.90;;;;;;5018300;28;20280;-93
2022/01/06 05:46:04;;;;;;;6.53;4.30;;;1.40;99.90;;;;;;5019249;28;20328;-94
2022/01/06 05:48:37;;;;;;;4.63;3.67;;;1.40;99.90;;;;;;5021370;28;20209;-95
2022/01/06 05:51:08;;;;;;;4.50;3.40;;;1.50;99.90;;;;;;5034070;28;20201;-95
2022/01/06 05:53:42;;;;;;;3.37;2.87;;;1.50;99.90;;;;;;5037207;28;20197;-94
2022/01/06 05:56:14;;;;;;;3.50;2.33;;;1.60;99.90;;;;;;5036553;28;20210;-95
2022/01/06 05:58:46;;;;;;;2.23;1.80;;;1.60;99.90;;;;;;5034297;28;20197;-93
2022/01/06 06:01:20;;;;;;;2.33;1.80;;;1.60;99.90;;;;;;5037037;28;20200;-94
2022/01/06 06:03:54;;;;;;;2.77;1.90;;;1.70;99.90;;;;;;5032436;28;20233;-94
2022/01/06 06:06:26;;;;;;;2.73;1.40;;;1.70;99.90;;;;;;5031930;28;20210;-94
2022/01/06 06:08:59;;;;;;;2.33;2.03;;;1.70;99.90;;;;;;5014664;28;20209;-95
2022/01/06 06:11:34;;;;;;;1.47;1.33;;;1.80;99.90;;;;;;5024930;28;20232;-95
2022/01/06 06:14:06;;;;;;;1.90;1.43;;;1.80;99.90;;;;;;5018371;28;20201;-94
2022/01/06 06:16:37;;;;;;;1.53;1.20;;;1.80;99.90;;;;;;5015905;28;20262;-95
2022/01/06 06:19:08;;;;;;;1.97;0.97;;;1.90;99.90;;;;;;5016391;28;20194;-95
2022/01/06 06:21:39;;;;;;;1.13;0.90;;;1.90;99.90;;;;;;5016414;28;20206;-94
2022/01/06 06:24:14;;;;;;;0.50;0.50;;;1.90;99.90;;;;;;5016522;28;20273;-96
2022/01/06 06:26:46;;;;;;;1.00;0.50;;;1.90;99.90;;;;;;5019113;28;20205;-95
2022/01/06 06:29:17;;;;;;;1.00;0.40;;;2.00;99.90;;;;;;5024322;28;20228;-95
2022/01/06 06:31:49;;;;;;;0.70;0.53;;;2.00;99.90;;;;;;5019173;28;20232;-95
2022/01/06 06:34:20;;;;;;;0.40;0.40;;;2.00;99.90;;;;;;5019178;28;20218;-95
2022/01/06 06:36:51;;;;;;;0.67;0.30;;;2.10;99.90;;;;;;5018487;28;20284;-95
2022/01/06 06:39:24;;;;;;;0.20;0.20;;;2.10;99.90;;;;;;5001984;28;20248;-96
2022/01/06 06:41:55;;;;;;;0.53;0.30;;;2.10;99.90;;;;;;5019412;28;20232;-95
2022/01/06 06:44:26;;;;;;;0.30;0.30;;;2.20;99.90;;;;;;5020135;28;20226;-94
2022/01/06 06:46:57;;;;;;;0.20;0.20;;;2.20;99.90;;;;;;5019373;28;20237;-94
2022/01/06 06:49:29;;;;;;;0.67;0.20;;;2.20;99.90;;;;;;5020485;28;20208;-95
2022/01/06 06:52:00;;;;;;;0.37;0.30;;;2.20;99.90;;;;;;5019764;28;20210;-95
2022/01/06 06:54:33;;;;;;;0.93;0.40;;;2.20;99.90;;;;;;5020337;28;20206;-94
2022/01/06 06:57:04;;;;;;;0.37;0.20;;;2.20;99.90;;;;;;5019668;28;20205;-94
2022/01/06 06:59:36;;;;;;;0.27;0.20;;;2.20;99.90;;;;;;5019347;28;20251;-96
2022/01/06 07:02:07;;;;;;;0.10;0.10;;;2.20;99.90;;;;;;4986925;28;20240;-94
2022/01/06 07:04:38;;;;;;;0.20;0.20;;;2.20;99.90;;;;;;5019147;28;20969;-95
2022/01/06 07:07:13;;;;;;;0.20;0.20;;;2.20;99.90;;;;;;5018561;28;20283;-95
2022/01/06 07:09:46;;;;;;;0.37;0.30;;;2.30;99.90;;;;;;5019014;28;20301;-95
2022/01/06 07:12:17;;;;;;;0.30;0.30;;;2.30;99.90;;;;;;5018603;28;20251;-94
2022/01/06 07:14:47;;;;;;;0.63;0.30;;;2.30;99.90;;;;;;5004686;28;20209;-94
2022/01/06 07:17:18;;;;;;;0.20;0.20;;;2.30;99.90;;;;;;5020808;28;20228;-94
2022/01/06 07:19:50;;;;;;;0.20;0.20;;;2.30;99.90;;;;;;5018353;28;20297;-94
2022/01/06 07:22:21;;;;;;;0.10;0.10;;;2.40;99.90;;;;;;5019121;28;20202;-95
2022/01/06 07:24:53;;;;;;;0.20;0.13;;;2.30;99.90;;;;;;5018896;28;20237;-95
2022/01/06 07:27:25;;;;;;;0.57;0.20;;;2.30;99.90;;;;;;5018139;28;20194;-95
2022/01/06 07:29:56;;;;;;;0.43;0.27;;;2.40;99.90;;;;;;5018352;28;20248;-94
2022/01/06 07:32:28;;;;;;;0.60;0.30;;;2.40;99.90;;;;;;5031741;28;20201;-93
2022/01/06 07:34:59;;;;;;;0.50;0.30;;;2.40;99.90;;;;;;5043884;28;20712;-94
2022/01/06 07:37:34;;;;;;;0.30;0.30;;;2.40;99.90;;;;;;5041803;28;20216;-94
2022/01/06 07:40:09;;;;;;;0.23;0.23;;;2.40;99.90;;;;;;5044420;28;20244;-93
2022/01/06 07:42:40;;;;;;;0.33;0.33;;;2.40;99.90;;;;;;5045379;28;20204;-94
2022/01/06 07:45:11;;;;;;;0.30;0.30;;;2.40;99.90;;;;;;5044171;28;20665;-95
2022/01/06 07:47:55;;;;;;;0.63;0.40;;;2.40;99.90;;;;;;5043299;28;20208;-94
2022/01/06 07:50:28;;;;;;;1.37;0.50;;;2.40;99.90;;;;;;5045684;28;20231;-95
2022/01/06 07:52:59;;;;;;;0.40;0.40;;;2.40;99.90;;;;;;5043741;28;20213;-95
2022/01/06 07:55:32;;;;;;;0.37;0.37;;;2.40;99.90;;;;;;5043722;28;20208;-95
2022/01/06 07:58:03;;;;;;;0.57;0.30;;;2.50;99.90;;;;;;5043773;28;20233;-95
2022/01/06 08:00:35;;;;;;;1.13;0.40;;;2.50;99.90;;;;;;5042674;28;20205;-95
2022/01/06 08:03:08;;;;;;;0.30;0.30;;;2.50;99.90;;;;;;5043456;28;20216;-94
2022/01/06 08:05:40;;;;;;;1.00;0.40;;;2.50;99.90;;;;;;5026293;28;20205;-95
2022/01/06 08:08:15;;;;;;;4.20;0.67;;;2.50;99.90;;;;;;5031598;28;20277;-94
2022/01/06 08:10:49;;;;;;;1.33;0.93;;;2.50;99.90;;;;;;5037560;28;20256;-93
2022/01/06 08:13:21;;;;;;;1.37;0.77;;;2.50;99.90;;;;;;5036735;28;20218;-93
2022/01/06 08:15:51;;;;;;;1.07;0.97;;;2.50;99.90;;;;;;5036749;28;20190;-94
2022/01/06 08:18:23;;;;;;;1.47;0.50;;;2.60;99.90;;;;;;5035028;28;20206;-93
2022/01/06 08:20:55;;;;;;;1.10;0.90;;;2.60;99.90;;;;;;5031955;28;20213;-96
2022/01/06 08:23:26;;;;;;;1.50;0.83;;;2.60;99.90;;;;;;5008148;28;20229;-95
2022/01/06 08:26:01;;;;;;;0.70;0.60;;;2.70;99.90;;;;;;5013058;28;20240;-93
2022/01/06 08:28:32;;;;;;;3.37;1.70;;;2.60;99.90;;;;;;5019376;28;20721;-95
2022/01/06 08:31:03;;;;;;;5.77;2.60;;;2.60;99.90;;;;;;5000255;28;20264;-94
2022/01/06 08:33:34;;;;;;;4.10;2.47;;;2.60;99.90;;;;;;5018203;28;20217;-94
2022/01/06 08:36:06;;;;;;;7.40;2.20;;;2.50;99.90;;;;;;5016581;28;20252;-93
2022/01/06 08:38:37;;;;;;;8.63;2.47;;;2.50;99.90;;;;;;5016913;28;20733;-94
2022/01/06 08:41:11;;;;;;;9.37;3.00;;;2.40;99.90;;;;;;5030863;28;20209;-94
2022/01/06 08:43:47;;;;;;;11.30;2.80;;;2.30;99.90;;;;;;5019691;28;20240;-94
2022/01/06 08:46:19;;;;;;;4.70;2.50;;;2.30;99.90;;;;;;5020806;28;20209;-94
2022/01/06 08:48:51;;;;;;;18.37;3.50;;;2.30;99.90;;;;;;5019227;28;20292;-94
2022/01/06 08:51:21;;;;;;;7.33;2.80;;;2.30;99.90;;;;;;5019680;28;20237;-95
2022/01/06 08:53:54;;;;;;;8.27;2.60;;;2.30;99.90;;;;;;5019265;28;20217;-92
2022/01/06 08:56:27;;;;;;;7.00;2.93;;;2.30;99.90;;;;;;5016945;28;20217;-93
2022/01/06 08:58:58;;;;;;;18.67;3.10;;;2.30;99.90;;;;;;5018769;28;20650;-92
2022/01/06 09:01:29;;;;;;;5.50;2.53;;;2.30;99.90;;;;;;5018635;28;20565;-93
2022/01/06 09:04:01;;;;;;;5.03;2.27;;;2.40;99.90;;;;;;5016289;28;20225;-94
2022/01/06 09:06:33;;;;;;;4.73;2.53;;;2.40;99.90;;;;;;5017056;28;20224;-94
2022/01/06 09:09:05;;;;;;;6.40;2.17;;;2.40;99.90;;;;;;5016722;28;20205;-95
2022/01/06 09:11:38;;;;;;;4.13;1.97;;;2.40;99.90;;;;;;5016408;28;20649;-95
2022/01/06 09:14:09;;;;;;;9.67;2.87;;;2.30;99.90;;;;;;5016594;28;20209;-96
2022/01/06 09:16:41;;;;;;;2.93;1.93;;;2.30;99.90;;;;;;5015366;28;20206;-96
2022/01/06 09:19:13;;;;;;;3.53;2.20;;;2.30;99.90;;;;;;5016190;28;20213;-94
2022/01/06 09:21:43;;;;;;;3.37;2.10;;;2.30;99.90;;;;;;5016302;28;20252;-94
2022/01/06 09:24:15;;;;;;;1.70;1.60;;;2.30;99.90;;;;;;5015819;28;20332;-95
2022/01/06 09:26:48;;;;;;;5.80;1.83;;;2.40;99.90;;;;;;5015634;28;20702;-95
2022/01/06 09:29:18;;;;;;;7.20;1.60;;;2.40;99.90;;;;;;5015484;28;20201;-96
2022/01/06 09:31:50;;;;;;;5.43;1.70;;;2.40;99.90;;;;;;5020219;28;20209;-94
2022/01/06 09:34:20;;;;;;;3.07;1.50;;;2.40;99.90;;;;;;5003416;28;20205;-95
2022/01/06 09:36:51;;;;;;;1.77;1.60;;;2.40;99.90;;;;;;5020038;28;20327;-95
2022/01/06 09:39:22;;;;;;;2.40;1.40;;;2.40;99.90;;;;;;5021576;28;20296;-94
2022/01/06 09:41:55;;;;;;;2.97;1.20;;;2.40;99.90;;;;;;5038453;28;20638;-95
2022/01/06 09:44:27;;;;;;;1.53;1.10;;;2.40;99.90;;;;;;5036264;28;20232;-95
2022/01/06 09:47:02;;;;;;;4.73;1.20;;;2.40;99.90;;;;;;5035074;28;20266;-94
2022/01/06 09:49:34;;;;;;;3.27;1.40;;;2.40;99.90;;;;;;5036293;28;20636;-94
2022/01/06 09:52:05;;;;;;;1.87;1.20;;;2.40;99.90;;;;;;5036053;28;20284;-93
2022/01/06 09:54:38;;;;;;;1.30;1.10;;;2.40;99.90;;;;;;5035959;28;20665;-96
2022/01/06 09:57:12;;;;;;;1.50;1.20;;;2.50;99.90;;;;;;5034491;28;20213;-95
2022/01/06 09:59:44;;;;;;;1.70;1.30;;;2.60;99.90;;;;;;5036392;28;20254;-95
2022/01/06 10:02:16;;;;;;;1.90;1.70;;;2.50;99.90;;;;;;5040564;28;20221;-95
2022/01/06 10:04:59;;;;;;;3.23;1.53;;;2.50;99.90;;;;;;5038599;28;20605;-94
2022/01/06 10:07:38;;;;;;;6.90;1.70;;;2.50;99.90;;;;;;5033472;28;20244;-95
2022/01/06 10:10:12;;;;;;;2.97;1.50;;;2.50;99.90;;;;;;5020743;28;20650;-95
2022/01/06 10:12:56;;;;;;;2.33;1.47;;;2.50;99.90;;;;;;5020520;28;20209;-95
2022/01/06 10:15:29;;;;;;;2.37;1.70;;;2.50;99.90;;;;;;5020227;28;20236;-95
2022/01/06 10:18:11;;;;;;;2.73;1.27;;;2.50;99.90;;;;;;5020471;28;20751;-95
2022/01/06 10:20:44;;;;;;;3.00;1.50;;;2.50;99.90;;;;;;5022831;28;20205;-95
2022/01/06 10:23:16;;;;;;;2.27;1.27;;;2.50;99.90;;;;;;5021507;28;20244;-94
2022/01/06 10:25:49;;;;;;;1.37;1.20;;;2.50;99.90;;;;;;5033317;28;20229;-95
2022/01/06 10:31:08;;;;;;;1.30;1.10;;;2.50;99.90;;;;;;5056085;28;20232;-95
2022/01/06 10:33:40;;;;;;;2.40;1.10;;;2.50;99.90;;;;;;5050072;28;20282;-95
2022/01/06 10:36:11;;;;;;;3.10;1.00;;;2.60;99.90;;;;;;5051152;28;20213;-96
2022/01/06 10:38:42;;;;;;;2.07;1.30;;;2.60;99.90;;;;;;5041357;28;20213;-94
2022/01/06 10:41:15;;;;;;;4.17;1.07;;;2.60;99.90;;;;;;5039367;28;20328;-94
2022/01/06 10:43:51;;;;;;;0.90;0.80;;;2.60;99.90;;;;;;5039507;28;20205;-95
2022/01/06 10:46:36;;;;;;;1.50;1.40;;;2.60;99.90;;;;;;5038837;28;20229;-94
2022/01/06 10:49:14;;;;;;;1.10;0.93;;;2.60;99.90;;;;;;5023372;28;20278;-94
2022/01/06 10:51:46;;;;;;;0.83;0.70;;;2.60;99.90;;;;;;5040140;28;20239;-95
2022/01/06 10:54:21;;;;;;;0.80;0.77;;;2.60;99.90;;;;;;5039692;28;20209;-94
2022/01/06 10:56:59;;;;;;;2.60;0.83;;;2.60;99.90;;;;;;5039236;28;20259;-95
2022/01/06 10:59:36;;;;;;;3.50;0.87;;;2.60;99.90;;;;;;5039045;28;20251;-95
2022/01/06 11:02:09;;;;;;;0.83;0.63;;;2.60;99.90;;;;;;5039796;28;20304;-95
2022/01/06 11:04:40;;;;;;;3.90;0.80;;;2.60;99.90;;;;;;5040137;28;20220;-95
2022/01/06 11:07:12;;;;;;;4.20;0.67;;;2.70;99.90;;;;;;5039424;28;20669;-95
2022/01/06 11:09:46;;;;;;;3.10;0.90;;;2.60;99.90;;;;;;5071314;23;20248;-95
2022/01/06 11:12:31;;;;;;;0.70;0.70;;;2.70;99.90;;;;;;5049432;28;20200;-94
2022/01/06 11:15:03;;;;;;;0.90;0.60;;;2.60;99.90;;;;;;5052859;28;20213;-94
2022/01/06 11:17:36;;;;;;;3.63;0.80;;;2.60;99.90;;;;;;5050773;28;20228;-95
2022/01/06 11:20:08;;;;;;;1.23;0.73;;;2.60;99.90;;;;;;5046301;28;20209;-95
2022/01/06 11:22:51;;;;;;;0.60;0.50;;;2.60;99.90;;;;;;5041571;28;20259;-95
2022/01/06 11:25:31;;;;;;;3.63;0.70;;;2.60;99.90;;;;;;5046127;28;20220;-95
2022/01/06 11:28:06;;;;;;;0.87;0.87;;;2.60;99.90;;;;;;5004811;28;20209;-94
2022/01/06 11:30:45;;;;;;;2.50;0.57;;;2.60;99.90;;;;;;5021097;28;20276;-94
2022/01/06 11:33:18;;;;;;;3.97;0.70;;;2.60;99.90;;;;;;5019700;28;20288;-94
2022/01/06 11:35:51;;;;;;;0.50;0.50;;;2.60;99.90;;;;;;4691755;28;9999777;-94
2022/01/06 11:38:25;;;;;;;1.00;0.50;;;2.60;99.90;;;;;;5039968;28;20247;-95
2022/01/06 11:41:10;;;;;;;0.33;0.30;;;2.60;99.90;;;;;;5038050;28;20250;-94
2022/01/06 11:43:43;;;;;;;0.30;0.30;;;2.70;99.90;;;;;;5037500;28;20212;-94
2022/01/06 11:46:14;;;;;;;2.00;0.40;;;2.70;99.90;;;;;;5036809;28;20236;-95
2022/01/06 11:48:54;;;;;;;1.47;0.43;;;2.70;99.90;;;;;;5037628;28;20721;-95
2022/01/06 11:51:29;;;;;;;2.00;0.37;;;2.80;99.90;;;;;;5038082;28;20212;-94
2022/01/06 11:54:00;;;;;;;0.60;0.50;;;2.80;99.90;;;;;;5037629;28;20661;-94
2022/01/06 11:56:31;;;;;;;2.00;0.40;;;2.70;99.90;;;;;;5037007;28;20215;-94
2022/01/06 11:59:04;;;;;;;2.37;0.70;;;2.70;99.90;;;;;;5037470;28;20288;-94
2022/01/06 12:01:46;;;;;;;11.60;0.80;;;2.60;99.90;;;;;;5020137;28;20602;-94
2022/01/06 12:04:23;;;;;;;1.40;0.70;;;2.60;99.90;;;;;;5036452;28;20208;-95
2022/01/06 12:07:05;;;;;;;1.00;0.90;;;2.70;99.90;;;;;;5032247;28;20648;-96
2022/01/06 12:09:37;;;;;;;1.53;1.10;;;2.70;99.90;;;;;;5017130;28;20248;-94
2022/01/06 12:12:11;;;;;;;3.03;1.00;;;2.80;99.90;;;;;;5017038;28;20240;-95
2022/01/06 12:14:42;;;;;;;1.40;0.80;;;2.80;99.90;;;;;;5017549;28;20225;-93
2022/01/06 12:17:14;;;;;;;1.07;0.60;;;2.80;99.90;;;;;;5035431;28;20212;-94
2022/01/06 12:19:50;;;;;;;1.67;0.50;;;2.80;99.90;;;;;;5037665;28;20291;-94
2022/01/06 12:22:25;;;;;;;3.03;0.70;;;2.80;99.90;;;;;;5037309;28;20270;-95
2022/01/06 12:25:02;;;;;;;2.07;1.03;;;2.80;99.90;;;;;;5037279;28;20732;-94
2022/01/06 12:27:45;;;;;;;1.60;0.80;;;2.80;99.90;;;;;;5036367;28;20237;-94
2022/01/06 12:30:16;;;;;;;7.83;1.70;;;2.80;99.90;;;;;;5037057;28;20320;-94
2022/01/06 12:33:02;;;;;;;5.43;1.83;;;2.80;99.90;;;;;;5036353;28;20205;-94
2022/01/06 12:35:44;;;;;;;5.40;1.30;;;2.80;99.90;;;;;;5037390;28;20642;-95
2022/01/06 12:38:22;;;;;;;5.80;1.40;;;2.80;99.90;;;;;;5037713;28;20231;-95
2022/01/06 12:40:54;;;;;;;4.13;1.13;;;2.80;99.90;;;;;;5038479;28;20224;-95
2022/01/06 12:43:38;;;;;;;1.83;0.93;;;2.80;99.90;;;;;;5050389;28;20189;-95
2022/01/06 12:46:11;;;;;;;0.40;0.40;;;2.80;99.90;;;;;;5039088;28;20326;-94
2022/01/06 12:48:45;;;;;;;2.10;0.60;;;2.80;99.90;;;;;;5055926;28;20205;-95
2022/01/06 12:51:21;;;;;;;1.17;0.20;;;2.80;99.90;;;;;;5027624;28;20209;-94
2022/01/06 12:53:53;;;;;;;0.20;0.20;;;2.80;99.90;;;;;;5024778;28;20228;-95
2022/01/06 12:56:26;;;;;;;0.20;0.20;;;2.80;99.90;;;;;;5036117;28;20233;-94
2022/01/06 12:58:57;;;;;;;0.13;0.13;;;2.80;99.90;;;;;;5041225;28;20219;-94
2022/01/06 13:01:30;;;;;;;0.30;0.30;;;2.80;99.90;;;;;;5037116;28;20249;-95
2022/01/06 13:04:02;;;;;;;0.30;0.30;;;2.90;99.90;;;;;;5036630;28;20212;-95
2022/01/06 13:06:38;;;;;;;0.27;0.27;;;2.90;99.90;;;;;;5017652;28;20292;-95
2022/01/06 13:09:17;;;;;;;0.20;0.20;;;2.90;99.90;;;;;;5035938;28;20224;-95
2022/01/06 13:11:52;;;;;;;0.20;0.20;;;2.90;99.90;;;;;;5035990;28;20665;-95
2022/01/06 13:14:34;;;;;;;0.23;0.20;;;2.90;99.90;;;;;;5036077;28;20295;-94
2022/01/06 13:17:11;;;;;;;11.40;0.97;;;2.80;99.90;;;;;;5040327;28;20209;-93
2022/01/06 13:19:54;;;;;;;0.50;0.10;;;2.90;99.90;;;;;;5042738;28;20722;-93
2022/01/06 13:22:59;;;;;;;1.50;0.30;;;2.90;99.90;;;;;;5037698;28;20204;-95
2022/01/06 13:25:34;;;;;;;1.90;0.30;;;2.90;99.90;;;;;;5036666;28;20240;-95
2022/01/06 13:28:09;;;;;;;1.97;0.63;;;2.90;99.90;;;;;;5036426;28;20296;-96
2022/01/06 13:30:43;;;;;;;1.60;0.33;;;2.90;99.90;;;;;;5036326;28;20247;-94
2022/01/06 13:33:15;;;;;;;0.30;0.30;;;3.00;99.90;;;;;;5037403;28;20253;-96
2022/01/06 13:35:50;;;;;;;0.70;0.30;;;3.00;99.90;;;;;;5038503;28;20244;-95
2022/01/06 13:38:24;;;;;;;0.50;0.30;;;3.00;99.90;;;;;;5019685;28;20232;-94